sensor_id;sensor_type;location;lat;lon;timestamp;P1;durP1;ratioP1;P2;durP2;ratioP2
40939;SDS011;26666;50.156;7.700;2023-02-28T00:00:35;0.75;;;0.20;;
40939;SDS011;26666;50.156;7.700;2023-02-28T00:05:37;0.52;;;0.10;;
40939;SDS011;26666;50.156;7.700;2023-02-28T00:10:39;0.05;;;0.05;;
40939;SDS011;26666;50.156;7.700;2023-02-28T00:15:40;1.40;;;0.10;;
40939;SDS011;26666;50.156;7.700;2023-02-28T00:20:42;0.10;;;0.10;;
40939;SDS011;26666;50.156;7.700;2023-02-28T00:25:43;1.10;;;0.90;;
40939;SDS011;26666;50.156;7.700;2023-02-28T00:30:46;0.57;;;0.10;;
40939;SDS011;26666;50.156;7.700;2023-02-28T00:35:48;1.13;;;0.30;;
40939;SDS011;26666;50.156;7.700;2023-02-28T00:40:50;0.75;;;0.10;;
40939;SDS011;26666;50.156;7.700;2023-02-28T00:45:51;1.45;;;0.10;;
40939;SDS011;26666;50.156;7.700;2023-02-28T00:50:53;0.70;;;0.10;;
40939;SDS011;26666;50.156;7.700;2023-02-28T00:55:54;0.65;;;0.10;;
40939;SDS011;26666;50.156;7.700;2023-02-28T01:00:56;0.13;;;0.08;;
40939;SDS011;26666;50.156;7.700;2023-02-28T01:05:57;1.17;;;0.13;;
40939;SDS011;26666;50.156;7.700;2023-02-28T01:11:06;0.70;;;0.25;;
40939;SDS011;26666;50.156;7.700;2023-02-28T01:16:12;0.63;;;0.20;;
40939;SDS011;26666;50.156;7.700;2023-02-28T01:21:15;5.38;;;0.10;;
40939;SDS011;26666;50.156;7.700;2023-02-28T01:26:19;3.08;;;0.28;;
40939;SDS011;26666;50.156;7.700;2023-02-28T01:31:23;0.68;;;0.15;;
40939;SDS011;26666;50.156;7.700;2023-02-28T01:36:25;1.20;;;0.30;;
40939;SDS011;26666;50.156;7.700;2023-02-28T01:41:27;0.30;;;0.15;;
40939;SDS011;26666;50.156;7.700;2023-02-28T01:46:33;2.17;;;0.25;;
40939;SDS011;26666;50.156;7.700;2023-02-28T01:51:41;1.75;;;0.50;;
40939;SDS011;26666;50.156;7.700;2023-02-28T01:56:46;1.08;;;0.50;;
40939;SDS011;26666;50.156;7.700;2023-02-28T02:01:51;1.58;;;0.20;;
40939;SDS011;26666;50.156;7.700;2023-02-28T02:06:53;1.15;;;0.10;;
40939;SDS011;26666;50.156;7.700;2023-02-28T02:11:55;0.30;;;0.20;;
40939;SDS011;26666;50.156;7.700;2023-02-28T02:22:12;0.85;;;0.20;;
40939;SDS011;26666;50.156;7.700;2023-02-28T02:44:27;1.80;;;0.43;;
40939;SDS011;26666;50.156;7.700;2023-02-28T02:49:32;1.55;;;0.50;;
40939;SDS011;26666;50.156;7.700;2023-02-28T02:54:37;1.00;;;0.30;;
40939;SDS011;26666;50.156;7.700;2023-02-28T02:59:41;4.57;;;0.20;;
40939;SDS011;26666;50.156;7.700;2023-02-28T03:04:48;0.70;;;0.10;;
40939;SDS011;26666;50.156;7.700;2023-02-28T03:09:54;1.02;;;0.30;;
40939;SDS011;26666;50.156;7.700;2023-02-28T03:20:23;1.35;;;0.50;;
40939;SDS011;26666;50.156;7.700;2023-02-28T03:25:43;4.47;;;0.22;;
40939;SDS011;26666;50.156;7.700;2023-02-28T03:30:57;3.45;;;0.38;;
40939;SDS011;26666;50.156;7.700;2023-02-28T03:36:06;1.63;;;0.22;;
40939;SDS011;26666;50.156;7.700;2023-02-28T03:41:26;0.70;;;0.50;;
40939;SDS011;26666;50.156;7.700;2023-02-28T03:46:35;0.82;;;0.28;;
40939;SDS011;26666;50.156;7.700;2023-02-28T03:51:40;2.47;;;1.13;;
40939;SDS011;26666;50.156;7.700;2023-02-28T03:56:46;0.73;;;0.40;;
40939;SDS011;26666;50.156;7.700;2023-02-28T04:01:53;3.50;;;0.93;;
40939;SDS011;26666;50.156;7.700;2023-02-28T04:07:03;0.50;;;0.38;;
40939;SDS011;26666;50.156;7.700;2023-02-28T04:12:07;0.60;;;0.35;;
40939;SDS011;26666;50.156;7.700;2023-02-28T04:17:09;0.80;;;0.40;;
40939;SDS011;26666;50.156;7.700;2023-02-28T04:22:11;1.77;;;0.88;;
40939;SDS011;26666;50.156;7.700;2023-02-28T04:27:12;2.45;;;0.50;;
40939;SDS011;26666;50.156;7.700;2023-02-28T04:32:14;1.50;;;0.43;;
40939;SDS011;26666;50.156;7.700;2023-02-28T04:37:16;4.55;;;0.50;;
40939;SDS011;26666;50.156;7.700;2023-02-28T04:42:17;0.98;;;0.55;;
40939;SDS011;26666;50.156;7.700;2023-02-28T04:47:19;0.60;;;0.30;;
40939;SDS011;26666;50.156;7.700;2023-02-28T04:52:20;1.42;;;0.50;;
40939;SDS011;26666;50.156;7.700;2023-02-28T04:57:22;1.85;;;1.15;;
40939;SDS011;26666;50.156;7.700;2023-02-28T05:02:23;7.93;;;1.60;;
40939;SDS011;26666;50.156;7.700;2023-02-28T05:07:25;0.45;;;0.40;;
40939;SDS011;26666;50.156;7.700;2023-02-28T05:12:26;0.73;;;0.40;;
40939;SDS011;26666;50.156;7.700;2023-02-28T05:17:28;4.72;;;0.80;;
40939;SDS011;26666;50.156;7.700;2023-02-28T05:22:29;1.13;;;0.70;;
40939;SDS011;26666;50.156;7.700;2023-02-28T05:27:31;2.95;;;0.80;;
40939;SDS011;26666;50.156;7.700;2023-02-28T05:32:32;1.52;;;0.40;;
40939;SDS011;26666;50.156;7.700;2023-02-28T05:37:34;1.95;;;0.80;;
40939;SDS011;26666;50.156;7.700;2023-02-28T05:42:36;0.82;;;0.30;;
40939;SDS011;26666;50.156;7.700;2023-02-28T05:47:41;1.75;;;0.73;;
40939;SDS011;26666;50.156;7.700;2023-02-28T05:52:50;1.95;;;0.70;;
40939;SDS011;26666;50.156;7.700;2023-02-28T05:57:52;1.50;;;0.90;;
40939;SDS011;26666;50.156;7.700;2023-02-28T06:02:53;3.20;;;0.93;;
40939;SDS011;26666;50.156;7.700;2023-02-28T06:07:55;2.03;;;0.40;;
40939;SDS011;26666;50.156;7.700;2023-02-28T06:12:59;2.08;;;0.68;;
40939;SDS011;26666;50.156;7.700;2023-02-28T06:18:01;1.15;;;0.55;;
40939;SDS011;26666;50.156;7.700;2023-02-28T06:23:02;0.90;;;0.73;;
40939;SDS011;26666;50.156;7.700;2023-02-28T06:28:04;5.35;;;1.00;;
40939;SDS011;26666;50.156;7.700;2023-02-28T06:33:05;0.80;;;0.77;;
40939;SDS011;26666;50.156;7.700;2023-02-28T06:38:07;1.25;;;0.82;;
40939;SDS011;26666;50.156;7.700;2023-02-28T06:43:09;3.53;;;0.73;;
40939;SDS011;26666;50.156;7.700;2023-02-28T06:48:10;0.70;;;0.70;;
40939;SDS011;26666;50.156;7.700;2023-02-28T06:53:12;0.75;;;0.50;;
40939;SDS011;26666;50.156;7.700;2023-02-28T06:58:14;1.63;;;0.57;;
40939;SDS011;26666;50.156;7.700;2023-02-28T07:03:15;1.83;;;0.60;;
40939;SDS011;26666;50.156;7.700;2023-02-28T07:08:17;3.72;;;0.80;;
40939;SDS011;26666;50.156;7.700;2023-02-28T07:13:18;2.25;;;0.90;;
40939;SDS011;26666;50.156;7.700;2023-02-28T07:18:20;1.85;;;1.00;;
40939;SDS011;26666;50.156;7.700;2023-02-28T07:23:24;1.65;;;1.02;;
40939;SDS011;26666;50.156;7.700;2023-02-28T07:28:26;5.22;;;1.13;;
40939;SDS011;26666;50.156;7.700;2023-02-28T07:33:27;4.53;;;1.92;;
40939;SDS011;26666;50.156;7.700;2023-02-28T07:38:29;1.42;;;0.80;;
40939;SDS011;26666;50.156;7.700;2023-02-28T07:43:31;5.03;;;1.00;;
40939;SDS011;26666;50.156;7.700;2023-02-28T07:48:33;1.75;;;1.17;;
40939;SDS011;26666;50.156;7.700;2023-02-28T07:53:35;1.67;;;1.00;;
40939;SDS011;26666;50.156;7.700;2023-02-28T07:58:37;1.98;;;0.77;;
40939;SDS011;26666;50.156;7.700;2023-02-28T08:03:38;2.33;;;0.75;;
40939;SDS011;26666;50.156;7.700;2023-02-28T08:08:41;2.22;;;1.00;;
40939;SDS011;26666;50.156;7.700;2023-02-28T08:13:42;3.50;;;0.65;;
40939;SDS011;26666;50.156;7.700;2023-02-28T08:18:45;2.90;;;0.95;;
40939;SDS011;26666;50.156;7.700;2023-02-28T08:23:47;1.08;;;0.70;;
40939;SDS011;26666;50.156;7.700;2023-02-28T08:28:50;2.33;;;0.95;;
40939;SDS011;26666;50.156;7.700;2023-02-28T08:33:51;1.88;;;0.95;;
40939;SDS011;26666;50.156;7.700;2023-02-28T08:38:53;6.35;;;1.38;;
40939;SDS011;26666;50.156;7.700;2023-02-28T08:43:54;5.93;;;0.90;;
40939;SDS011;26666;50.156;7.700;2023-02-28T08:48:56;1.65;;;0.73;;
40939;SDS011;26666;50.156;7.700;2023-02-28T08:53:59;1.75;;;0.75;;
40939;SDS011;26666;50.156;7.700;2023-02-28T08:59:01;1.23;;;0.57;;
40939;SDS011;26666;50.156;7.700;2023-02-28T09:04:02;1.40;;;0.57;;
40939;SDS011;26666;50.156;7.700;2023-02-28T09:09:04;2.38;;;0.63;;
40939;SDS011;26666;50.156;7.700;2023-02-28T09:14:06;0.95;;;0.85;;
40939;SDS011;26666;50.156;7.700;2023-02-28T09:19:10;1.15;;;0.70;;
40939;SDS011;26666;50.156;7.700;2023-02-28T09:24:12;2.40;;;0.75;;
40939;SDS011;26666;50.156;7.700;2023-02-28T09:29:13;10.60;;;1.67;;
40939;SDS011;26666;50.156;7.700;2023-02-28T09:34:15;2.63;;;0.70;;
40939;SDS011;26666;50.156;7.700;2023-02-28T09:39:17;1.77;;;0.60;;
40939;SDS011;26666;50.156;7.700;2023-02-28T09:44:37;3.13;;;0.88;;
40939;SDS011;26666;50.156;7.700;2023-02-28T09:49:45;1.00;;;0.60;;
40939;SDS011;26666;50.156;7.700;2023-02-28T09:54:48;3.05;;;0.65;;
40939;SDS011;26666;50.156;7.700;2023-02-28T10:05:27;0.98;;;0.55;;
40939;SDS011;26666;50.156;7.700;2023-02-28T10:15:39;0.88;;;0.60;;
40939;SDS011;26666;50.156;7.700;2023-02-28T10:20:41;1.77;;;0.57;;
40939;SDS011;26666;50.156;7.700;2023-02-28T10:25:45;11.15;;;1.20;;
40939;SDS011;26666;50.156;7.700;2023-02-28T10:30:53;0.60;;;0.60;;
40939;SDS011;26666;50.156;7.700;2023-02-28T10:35:56;1.40;;;0.70;;
40939;SDS011;26666;50.156;7.700;2023-02-28T10:41:05;1.70;;;0.65;;
40939;SDS011;26666;50.156;7.700;2023-02-28T10:46:15;1.27;;;0.70;;
40939;SDS011;26666;50.156;7.700;2023-02-28T10:51:19;1.75;;;0.65;;
40939;SDS011;26666;50.156;7.700;2023-02-28T10:56:24;1.27;;;1.17;;
40939;SDS011;26666;50.156;7.700;2023-02-28T11:06:32;1.43;;;0.53;;
40939;SDS011;26666;50.156;7.700;2023-02-28T11:11:42;2.38;;;0.75;;
40939;SDS011;26666;50.156;7.700;2023-02-28T11:16:46;1.33;;;0.55;;
40939;SDS011;26666;50.156;7.700;2023-02-28T11:21:59;2.38;;;0.80;;
40939;SDS011;26666;50.156;7.700;2023-02-28T11:27:02;1.10;;;0.80;;
40939;SDS011;26666;50.156;7.700;2023-02-28T11:37:18;1.92;;;1.00;;
40939;SDS011;26666;50.156;7.700;2023-02-28T11:53:02;1.40;;;1.10;;
40939;SDS011;26666;50.156;7.700;2023-02-28T12:03:38;3.03;;;1.27;;
40939;SDS011;26666;50.156;7.700;2023-02-28T12:09:00;3.38;;;1.45;;
40939;SDS011;26666;50.156;7.700;2023-02-28T12:14:25;3.20;;;1.13;;
40939;SDS011;26666;50.156;7.700;2023-02-28T12:20:11;2.60;;;0.80;;
40939;SDS011;26666;50.156;7.700;2023-02-28T12:31:08;1.25;;;0.63;;
40939;SDS011;26666;50.156;7.700;2023-02-28T12:36:16;1.15;;;0.98;;
40939;SDS011;26666;50.156;7.700;2023-02-28T12:42:03;3.87;;;1.00;;
40939;SDS011;26666;50.156;7.700;2023-02-28T12:47:13;4.50;;;1.17;;
40939;SDS011;26666;50.156;7.700;2023-02-28T12:52:17;2.25;;;1.00;;
40939;SDS011;26666;50.156;7.700;2023-02-28T12:57:46;1.45;;;1.02;;
40939;SDS011;26666;50.156;7.700;2023-02-28T13:13:25;2.63;;;1.05;;
40939;SDS011;26666;50.156;7.700;2023-02-28T13:18:44;1.50;;;1.13;;
40939;SDS011;26666;50.156;7.700;2023-02-28T13:24:01;1.92;;;1.25;;
40939;SDS011;26666;50.156;7.700;2023-02-28T13:34:15;5.20;;;1.17;;
40939;SDS011;26666;50.156;7.700;2023-02-28T13:55:37;3.63;;;1.38;;
40939;SDS011;26666;50.156;7.700;2023-02-28T14:00:59;2.05;;;0.90;;
40939;SDS011;26666;50.156;7.700;2023-02-28T14:06:08;3.83;;;1.13;;
40939;SDS011;26666;50.156;7.700;2023-02-28T14:11:22;3.00;;;1.63;;
40939;SDS011;26666;50.156;7.700;2023-02-28T14:16:44;4.55;;;0.85;;
40939;SDS011;26666;50.156;7.700;2023-02-28T14:21:50;2.13;;;0.93;;
40939;SDS011;26666;50.156;7.700;2023-02-28T14:38:01;3.15;;;1.20;;
40939;SDS011;26666;50.156;7.700;2023-02-28T14:43:17;3.45;;;1.17;;
40939;SDS011;26666;50.156;7.700;2023-02-28T14:48:21;3.20;;;1.08;;
40939;SDS011;26666;50.156;7.700;2023-02-28T14:53:30;2.35;;;1.42;;
40939;SDS011;26666;50.156;7.700;2023-02-28T14:58:37;3.72;;;1.27;;
40939;SDS011;26666;50.156;7.700;2023-02-28T15:03:39;4.82;;;1.27;;
40939;SDS011;26666;50.156;7.700;2023-02-28T15:08:41;2.38;;;1.23;;
40939;SDS011;26666;50.156;7.700;2023-02-28T15:13:49;1.77;;;0.85;;
40939;SDS011;26666;50.156;7.700;2023-02-28T15:19:26;1.42;;;1.33;;
40939;SDS011;26666;50.156;7.700;2023-02-28T15:29:53;3.00;;;1.30;;
40939;SDS011;26666;50.156;7.700;2023-02-28T15:34:58;1.83;;;1.33;;
40939;SDS011;26666;50.156;7.700;2023-02-28T15:40:13;2.97;;;1.70;;
40939;SDS011;26666;50.156;7.700;2023-02-28T15:50:38;1.85;;;1.20;;
40939;SDS011;26666;50.156;7.700;2023-02-28T15:55:39;5.68;;;1.52;;
40939;SDS011;26666;50.156;7.700;2023-02-28T16:00:43;3.15;;;1.45;;
40939;SDS011;26666;50.156;7.700;2023-02-28T16:05:45;1.48;;;1.00;;
40939;SDS011;26666;50.156;7.700;2023-02-28T16:10:46;2.80;;;1.27;;
40939;SDS011;26666;50.156;7.700;2023-02-28T16:15:48;4.03;;;1.63;;
40939;SDS011;26666;50.156;7.700;2023-02-28T16:20:49;1.50;;;1.00;;
40939;SDS011;26666;50.156;7.700;2023-02-28T16:25:51;2.85;;;1.23;;
40939;SDS011;26666;50.156;7.700;2023-02-28T16:30:53;2.67;;;1.58;;
40939;SDS011;26666;50.156;7.700;2023-02-28T16:35:55;2.47;;;1.48;;
40939;SDS011;26666;50.156;7.700;2023-02-28T16:40:57;1.10;;;0.77;;
40939;SDS011;26666;50.156;7.700;2023-02-28T16:46:00;4.18;;;1.35;;
40939;SDS011;26666;50.156;7.700;2023-02-28T16:51:02;4.22;;;0.80;;
40939;SDS011;26666;50.156;7.700;2023-02-28T16:56:04;5.97;;;1.48;;
40939;SDS011;26666;50.156;7.700;2023-02-28T17:01:05;2.92;;;1.15;;
40939;SDS011;26666;50.156;7.700;2023-02-28T17:06:20;6.38;;;1.58;;
40939;SDS011;26666;50.156;7.700;2023-02-28T17:11:24;2.92;;;1.10;;
40939;SDS011;26666;50.156;7.700;2023-02-28T17:16:31;2.22;;;1.60;;
40939;SDS011;26666;50.156;7.700;2023-02-28T17:21:34;3.20;;;1.40;;
40939;SDS011;26666;50.156;7.700;2023-02-28T17:26:36;1.55;;;0.95;;
40939;SDS011;26666;50.156;7.700;2023-02-28T17:31:37;1.85;;;1.20;;
40939;SDS011;26666;50.156;7.700;2023-02-28T17:36:41;1.80;;;1.20;;
40939;SDS011;26666;50.156;7.700;2023-02-28T17:41:42;3.88;;;0.73;;
40939;SDS011;26666;50.156;7.700;2023-02-28T17:46:44;1.95;;;0.98;;
40939;SDS011;26666;50.156;7.700;2023-02-28T17:51:47;1.88;;;0.75;;
40939;SDS011;26666;50.156;7.700;2023-02-28T17:56:48;2.05;;;1.05;;
40939;SDS011;26666;50.156;7.700;2023-02-28T18:01:50;1.40;;;0.60;;
40939;SDS011;26666;50.156;7.700;2023-02-28T18:06:52;3.10;;;1.23;;
40939;SDS011;26666;50.156;7.700;2023-02-28T18:11:55;1.02;;;0.73;;
40939;SDS011;26666;50.156;7.700;2023-02-28T18:16:57;1.35;;;1.15;;
40939;SDS011;26666;50.156;7.700;2023-02-28T18:21:58;5.40;;;1.20;;
40939;SDS011;26666;50.156;7.700;2023-02-28T18:27:00;7.95;;;1.38;;
40939;SDS011;26666;50.156;7.700;2023-02-28T18:32:01;3.03;;;1.25;;
40939;SDS011;26666;50.156;7.700;2023-02-28T18:37:03;3.20;;;1.20;;
40939;SDS011;26666;50.156;7.700;2023-02-28T18:42:04;2.55;;;1.42;;
40939;SDS011;26666;50.156;7.700;2023-02-28T18:47:06;7.00;;;1.50;;
40939;SDS011;26666;50.156;7.700;2023-02-28T18:52:07;3.17;;;1.35;;
40939;SDS011;26666;50.156;7.700;2023-02-28T18:57:09;7.90;;;2.17;;
40939;SDS011;26666;50.156;7.700;2023-02-28T19:02:10;8.38;;;2.83;;
40939;SDS011;26666;50.156;7.700;2023-02-28T19:07:12;11.30;;;2.97;;
40939;SDS011;26666;50.156;7.700;2023-02-28T19:12:14;4.78;;;2.67;;
40939;SDS011;26666;50.156;7.700;2023-02-28T19:17:15;7.07;;;2.75;;
40939;SDS011;26666;50.156;7.700;2023-02-28T19:22:16;8.63;;;3.00;;
40939;SDS011;26666;50.156;7.700;2023-02-28T19:27:19;3.83;;;1.80;;
40939;SDS011;26666;50.156;7.700;2023-02-28T19:32:20;5.75;;;2.22;;
40939;SDS011;26666;50.156;7.700;2023-02-28T19:37:22;5.32;;;2.17;;
40939;SDS011;26666;50.156;7.700;2023-02-28T19:42:24;5.55;;;2.47;;
40939;SDS011;26666;50.156;7.700;2023-02-28T19:47:26;11.52;;;3.85;;
40939;SDS011;26666;50.156;7.700;2023-02-28T19:52:28;15.25;;;4.40;;
40939;SDS011;26666;50.156;7.700;2023-02-28T19:57:29;9.13;;;3.60;;
40939;SDS011;26666;50.156;7.700;2023-02-28T20:02:31;3.92;;;2.50;;
40939;SDS011;26666;50.156;7.700;2023-02-28T20:07:33;9.48;;;4.10;;
40939;SDS011;26666;50.156;7.700;2023-02-28T20:12:34;5.07;;;2.63;;
40939;SDS011;26666;50.156;7.700;2023-02-28T20:17:36;7.22;;;2.72;;
40939;SDS011;26666;50.156;7.700;2023-02-28T20:22:38;4.50;;;2.05;;
40939;SDS011;26666;50.156;7.700;2023-02-28T20:27:39;6.40;;;2.35;;
40939;SDS011;26666;50.156;7.700;2023-02-28T20:32:41;10.70;;;3.13;;
40939;SDS011;26666;50.156;7.700;2023-02-28T20:37:42;3.00;;;1.90;;
40939;SDS011;26666;50.156;7.700;2023-02-28T20:42:44;4.40;;;2.17;;
40939;SDS011;26666;50.156;7.700;2023-02-28T20:47:46;4.50;;;2.15;;
40939;SDS011;26666;50.156;7.700;2023-02-28T20:52:47;7.50;;;2.38;;
40939;SDS011;26666;50.156;7.700;2023-02-28T20:57:49;4.20;;;1.33;;
40939;SDS011;26666;50.156;7.700;2023-02-28T21:02:50;6.22;;;2.13;;
40939;SDS011;26666;50.156;7.700;2023-02-28T21:07:52;5.65;;;2.45;;
40939;SDS011;26666;50.156;7.700;2023-02-28T21:12:54;8.98;;;3.25;;
40939;SDS011;26666;50.156;7.700;2023-02-28T21:17:55;6.82;;;2.53;;
40939;SDS011;26666;50.156;7.700;2023-02-28T21:22:57;8.85;;;2.92;;
40939;SDS011;26666;50.156;7.700;2023-02-28T21:27:58;7.43;;;2.20;;
40939;SDS011;26666;50.156;7.700;2023-02-28T21:33:00;11.13;;;2.65;;
40939;SDS011;26666;50.156;7.700;2023-02-28T21:38:01;5.20;;;1.80;;
40939;SDS011;26666;50.156;7.700;2023-02-28T21:43:03;4.15;;;1.98;;
40939;SDS011;26666;50.156;7.700;2023-02-28T21:48:04;9.15;;;3.03;;
40939;SDS011;26666;50.156;7.700;2023-02-28T21:53:06;4.85;;;2.22;;
40939;SDS011;26666;50.156;7.700;2023-02-28T21:58:07;8.45;;;3.30;;
40939;SDS011;26666;50.156;7.700;2023-02-28T22:03:09;13.18;;;3.65;;
40939;SDS011;26666;50.156;7.700;2023-02-28T22:08:10;23.20;;;4.65;;
40939;SDS011;26666;50.156;7.700;2023-02-28T22:13:12;9.10;;;3.78;;
40939;SDS011;26666;50.156;7.700;2023-02-28T22:18:13;6.43;;;2.47;;
40939;SDS011;26666;50.156;7.700;2023-02-28T22:23:15;8.43;;;2.95;;
40939;SDS011;26666;50.156;7.700;2023-02-28T22:28:16;9.68;;;3.80;;
40939;SDS011;26666;50.156;7.700;2023-02-28T22:33:18;9.90;;;3.53;;
40939;SDS011;26666;50.156;7.700;2023-02-28T22:38:19;7.95;;;3.40;;
40939;SDS011;26666;50.156;7.700;2023-02-28T22:43:21;9.68;;;3.40;;
40939;SDS011;26666;50.156;7.700;2023-02-28T22:48:22;13.43;;;4.40;;
40939;SDS011;26666;50.156;7.700;2023-02-28T22:53:24;10.90;;;3.38;;
40939;SDS011;26666;50.156;7.700;2023-02-28T22:58:25;10.40;;;3.53;;
40939;SDS011;26666;50.156;7.700;2023-02-28T23:03:27;5.82;;;3.13;;
40939;SDS011;26666;50.156;7.700;2023-02-28T23:08:30;8.15;;;2.88;;
40939;SDS011;26666;50.156;7.700;2023-02-28T23:13:35;7.30;;;2.30;;
40939;SDS011;26666;50.156;7.700;2023-02-28T23:18:37;6.82;;;2.45;;
40939;SDS011;26666;50.156;7.700;2023-02-28T23:23:38;3.80;;;2.05;;
40939;SDS011;26666;50.156;7.700;2023-02-28T23:28:40;7.32;;;2.72;;
40939;SDS011;26666;50.156;7.700;2023-02-28T23:33:41;7.30;;;2.60;;
40939;SDS011;26666;50.156;7.700;2023-02-28T23:38:45;6.22;;;2.15;;
40939;SDS011;26666;50.156;7.700;2023-02-28T23:43:48;6.38;;;3.00;;
40939;SDS011;26666;50.156;7.700;2023-02-28T23:48:51;9.45;;;3.05;;
40939;SDS011;26666;50.156;7.700;2023-02-28T23:53:52;6.90;;;2.55;;
40939;SDS011;26666;50.156;7.700;2023-02-28T23:58:55;6.93;;;3.00;;
